Terminal Aerodrome Forecast
Issued by NWS

Home | Current Version | Previous Version | Text Only | Print | Product List | Glossary On
Versions: 1 2 3 4 5 6 7 8 9 10 11 12 13 14 15 16 17 18 19 20 21 22 23 24
000
FTUS45 KGJT 041739
TAFCNY
TAF
KCNY 041739Z 0418/0518 17008KT P6SM SCT150
     FM042000 21010KT P6SM SCT100 BKN150
     FM050300 20012KT P6SM BKN150
     FM050900 18010KT P6SM BKN100=

USA.gov is the U.S. government's official web portal to all federal, state and local government web resources and services.